Oasis, Utah
Current Conditions -  °F | °C
As of 1:55 PM on Sunday 21 Dec 2014 (Local Time) from KDTA Reporting Station
Overcast Overcast  
Wind Chill: 47°   Ceiling: 5500
Heat Index: 47°   Visibility: 10mi
Dew Point: 34°   Wind: 3mph
Humidity: 61%   Direction: 170°S
Pressure: 29.98"   Gusts: NA
Location:  39.29°N, 112.63°W
Report Text: KDTA 212055Z AUTO 17003KT 10SM OVC055 08/01 A2998 RMK AO1 T00840013
Loading
Personal Weather Stations






























Interactive Weather Map New forecast layout! Learn more

10-Day Weather Forecast

Advertisements
Track Severe Weather on mobile